| time (UTC) | temp F | wind direction | speed MPH | gust MPH | rain 1hr in | rain 24hr in | rain mn in | humidity % | barometer mb |
| 20260504082000 | 55 | 162 | 1.0 | 2.0 | 0.00 | 0.00 | 0.00 | 64 | 1014.4 |
| 20260504081502 | 55 | 162 | 1.0 | 3.0 | 0.00 | 0.00 | 0.00 | 64 | 1014.6 |
| 20260504081007 | 55 | 162 | 0.0 | 3.0 | 0.00 | 0.00 | 0.00 | 63 | 1014.5 |
| 20260504080511 | 55 | 155 | 1.0 | 4.0 | 0.00 | 0.00 | 0.00 | 64 | 1014.5 |
| 20260504080117 | 55 | 155 | 1.0 | 4.0 | 0.00 | 0.00 | 0.00 | 63 | 1014.5 |
| 20260504070104 | 55 | 182 | 1.0 | 4.0 | 0.00 | 0.00 | 0.00 | 63 | 1015.0 |
| 20260504060126 | 55 | 325 | 1.0 | 2.0 | 0.00 | 0.00 | 0.00 | 62 | 1015.6 |
| 20260504050545 | 57 | 158 | 0.0 | 8.0 | 0.00 | 0.00 | 0.00 | 59 | 1015.3 |
| 20260504050015 | 57 | 135 | 2.0 | 7.0 | 0.00 | 0.00 | 0.00 | 59 | 1015.1 |
| 20260504045603 | 56 | 171 | 2.0 | 7.0 | 0.00 | 0.00 | 0.00 | 59 | 1015.3 |
| 20260504045104 | 56 | 187 | 2.0 | 6.0 | 0.00 | 0.00 | 0.00 | 59 | 1015.3 |
| 20260504044502 | 56 | 141 | 1.0 | 4.0 | 0.00 | 0.00 | 0.00 | 59 | 1015.5 |
| 20260504044007 | 56 | 160 | 1.0 | 4.0 | 0.00 | 0.00 | 0.00 | 59 | 1015.5 |
| 20260504043520 | 56 | 147 | 1.0 | 4.0 | 0.00 | 0.00 | 0.00 | 58 | 1015.7 |
| 20260504043115 | 56 | 164 | 2.0 | 4.0 | 0.00 | 0.00 | 0.00 | 58 | 1015.8 |
| 20260504042550 | 57 | 178 | 1.0 | 3.0 | 0.00 | 0.00 | 0.00 | 58 | 1015.9 |
| 20260504042054 | 57 | 174 | 1.0 | 4.0 | 0.00 | 0.00 | 0.00 | 57 | 1015.9 |
| 20260504041549 | 57 | 169 | 2.0 | 6.0 | 0.00 | 0.00 | 0.00 | 57 | 1016.1 |
| 20260504041050 | 57 | 184 | 1.0 | 5.0 | 0.00 | 0.00 | 0.00 | 56 | 1016.1 |
| 20260504040550 | 57 | 129 | 2.0 | 4.0 | 0.00 | 0.00 | 0.00 | 56 | 1016.1 |
| 20260504040054 | 57 | 180 | 1.0 | 4.0 | 0.00 | 0.00 | 0.00 | 56 | 1016.1 |
| 20260504035533 | 57 | 181 | 1.0 | 5.0 | 0.00 | 0.00 | 0.00 | 55 | 1016.2 |
| 20260504035038 | 57 | 184 | 2.0 | 5.0 | 0.00 | 0.00 | 0.00 | 55 | 1016.3 |
| 20260504034540 | 57 | 182 | 1.0 | 3.0 | 0.00 | 0.00 | 0.00 | 55 | 1016.4 |
| 20260504034042 | 57 | 182 | 1.0 | 3.0 | 0.00 | 0.00 | 0.00 | 54 | 1016.4 |
| 20260504033550 | 58 | 186 | 1.0 | 3.0 | 0.00 | 0.00 | 0.00 | 54 | 1016.5 |
| 20260504033012 | 58 | 186 | 1.0 | 3.0 | 0.00 | 0.00 | 0.00 | 54 | 1016.3 |
| 20260504032532 | 58 | 186 | 1.0 | 3.0 | 0.00 | 0.00 | 0.00 | 53 | 1016.5 |
| 20260504032030 | 58 | 186 | 1.0 | 2.0 | 0.00 | 0.00 | 0.00 | 53 | 1016.5 |
| 20260504031529 | 58 | 186 | 1.0 | 3.0 | 0.00 | 0.00 | 0.00 | 53 | 1016.6 |
| 20260504031024 | 58 | 187 | 1.0 | 3.0 | 0.00 | 0.00 | 0.00 | 53 | 1016.6 |
| 20260504030524 | 58 | 187 | 1.0 | 3.0 | 0.00 | 0.00 | 0.00 | 53 | 1016.7 |
| 20260504030122 | 58 | 187 | 0.0 | 3.0 | 0.00 | 0.00 | 0.00 | 53 | 1016.7 |
| 20260504025558 | 58 | 153 | 1.0 | 3.0 | 0.00 | 0.00 | 0.00 | 53 | 1016.6 |
| 20260504025103 | 58 | 153 | 1.0 | 3.0 | 0.00 | 0.00 | 0.00 | 53 | 1016.5 |
| 20260504024606 | 58 | 153 | 1.0 | 3.0 | 0.00 | 0.00 | 0.00 | 52 | 1016.6 |
| 20260504024016 | 58 | 153 | 1.0 | 3.0 | 0.00 | 0.00 | 0.00 | 52 | 1016.5 |
| 20260504023518 | 59 | 153 | 1.0 | 2.0 | 0.00 | 0.00 | 0.00 | 52 | 1016.6 |
| 20260504023117 | 59 | 153 | 0.0 | 3.0 | 0.00 | 0.00 | 0.00 | 52 | 1016.6 |
| 20260504022554 | 59 | 153 | 1.0 | 3.0 | 0.00 | 0.00 | 0.00 | 52 | 1016.5 |
| 20260504022054 | 59 | 146 | 1.0 | 3.0 | 0.00 | 0.00 | 0.00 | 52 | 1016.4 |
| 20260504021556 | 59 | 113 | 0.0 | 2.0 | 0.00 | 0.00 | 0.00 | 52 | 1016.4 |
| 20260504021100 | 59 | 113 | 1.0 | 2.0 | 0.00 | 0.00 | 0.00 | 51 | 1016.2 |
| 20260504020602 | 59 | 171 | 1.0 | 2.0 | 0.00 | 0.00 | 0.00 | 51 | 1016.1 |
| 20260504020142 | 59 | 172 | 1.0 | 2.0 | 0.00 | 0.00 | 0.00 | 51 | 1016.2 |
| 20260504015536 | 59 | 172 | 1.0 | 2.0 | 0.00 | 0.00 | 0.00 | 51 | 1016.1 |
| 20260504015039 | 60 | 172 | 1.0 | 3.0 | 0.00 | 0.00 | 0.00 | 50 | 1016.2 |
| 20260504014558 | 60 | 172 | 0.0 | 3.0 | 0.00 | 0.00 | 0.00 | 50 | 1016.1 |
| 20260504014046 | 60 | 172 | 1.0 | 3.0 | 0.00 | 0.00 | 0.00 | 49 | 1015.9 |
| 20260504013550 | 60 | 172 | 1.0 | 2.0 | 0.00 | 0.00 | 0.00 | 49 | 1016.0 |
| 20260504013103 | 60 | 172 | 1.0 | 3.0 | 0.00 | 0.00 | 0.00 | 49 | 1015.9 |
| 20260504012526 | 60 | 172 | 2.0 | 4.0 | 0.00 | 0.00 | 0.00 | 49 | 1015.7 |
| 20260504012028 | 60 | 175 | 1.0 | 4.0 | 0.00 | 0.00 | 0.00 | 48 | 1015.8 |
| 20260504011534 | 60 | 188 | 1.0 | 3.0 | 0.00 | 0.00 | 0.00 | 49 | 1015.7 |
| 20260504011035 | 60 | 188 | 1.0 | 3.0 | 0.00 | 0.00 | 0.00 | 49 | 1015.8 |
| 20260504010536 | 60 | 188 | 2.0 | 3.0 | 0.00 | 0.00 | 0.00 | 48 | 1015.9 |
| 20260504010006 | 60 | 247 | 1.0 | 2.0 | 0.00 | 0.00 | 0.00 | 48 | 1016.0 |
| 20260504005510 | 61 | 257 | 1.0 | 2.0 | 0.00 | 0.00 | 0.00 | 48 | 1016.0 |
| 20260504005025 | 61 | 257 | 1.0 | 2.0 | 0.00 | 0.00 | 0.00 | 48 | 1016.0 |
| 20260504004532 | 61 | 257 | 0.0 | 2.0 | 0.00 | 0.00 | 0.00 | 47 | 1016.2 |
| 20260504004022 | 62 | 257 | 0.0 | 1.0 | 0.00 | 0.00 | 0.00 | 47 | 1016.2 |
| 20260504003525 | 62 | 257 | 0.0 | 1.0 | 0.00 | 0.00 | 0.00 | 47 | 1016.3 |
| 20260504003120 | 62 | 257 | 0.0 | 1.0 | 0.00 | 0.00 | 0.00 | 46 | 1016.2 |
| 20260504002556 | 62 | 257 | 0.0 | 1.0 | 0.00 | 0.00 | 0.00 | 46 | 1016.1 |
| 20260504002058 | 63 | 257 | 0.0 | 1.0 | 0.00 | 0.00 | 0.00 | 46 | 1016.2 |
| 20260504001623 | 63 | 257 | 0.0 | 1.0 | 0.00 | 0.00 | 0.00 | 45 | 1016.1 |
| 20260504001105 | 63 | 257 | 0.0 | 1.0 | 0.00 | 0.00 | 0.00 | 45 | 1016.2 |
| 20260504000503 | 64 | 257 | 0.0 | 1.0 | 0.00 | 0.00 | 0.00 | 45 | 1016.2 |
| 20260504000122 | 64 | 257 | 0.0 | 1.0 | 0.00 | 0.00 | 0.00 | 44 | 1016.3 |
| 20260503235544 | 64 | 257 | 0.0 | 1.0 | 0.00 | 0.00 | 0.00 | 44 | 1016.3 |
| 20260503235048 | 64 | 257 | 0.0 | 1.0 | 0.00 | 0.00 | 0.00 | 45 | 1016.3 |
| 20260503234556 | 64 | 257 | 0.0 | 2.0 | 0.00 | 0.00 | 0.00 | 44 | 1016.4 |
| 20260503234054 | 65 | 258 | 0.0 | 2.0 | 0.00 | 0.00 | 0.00 | 44 | 1016.5 |
| 20260503233558 | 65 | 258 | 1.0 | 2.0 | 0.00 | 0.00 | 0.00 | 42 | 1016.6 |
| 20260503233109 | 65 | 258 | 1.0 | 2.0 | 0.00 | 0.00 | 0.00 | 42 | 1016.8 |
| 20260503232536 | 65 | 257 | 0.0 | 2.0 | 0.00 | 0.00 | 0.00 | 44 | 1016.8 |
| 20260503232034 | 65 | 257 | 0.0 | 3.0 | 0.00 | 0.00 | 0.00 | 42 | 1016.8 |
| 20260503231536 | 65 | 253 | 0.0 | 3.0 | 0.00 | 0.00 | 0.00 | 41 | 1016.8 |
| 20260503231034 | 65 | 251 | 2.0 | 3.0 | 0.00 | 0.00 | 0.00 | 41 | 1016.8 |
| 20260503230536 | 65 | 284 | 1.0 | 3.0 | 0.00 | 0.01 | 0.00 | 41 | 1017.0 |
| 20260503230006 | 65 | 265 | 1.0 | 4.0 | 0.00 | 0.01 | 0.00 | 41 | 1017.0 |
| 20260503225519 | 65 | 265 | 1.0 | 4.0 | 0.00 | 0.01 | 0.00 | 39 | 1017.2 |
| 20260503225012 | 66 | 295 | 1.0 | 4.0 | 0.00 | 0.01 | 0.00 | 39 | 1017.1 |
| 20260503224514 | 66 | 277 | 2.0 | 4.0 | 0.00 | 0.01 | 0.00 | 39 | 1017.1 |
| 20260503224029 | 66 | 312 | 1.0 | 3.0 | 0.00 | 0.01 | 0.00 | 41 | 1017.0 |
| 20260503223525 | 66 | 229 | 0.0 | 3.0 | 0.00 | 0.01 | 0.00 | 43 | 1017.0 |
| 20260503223116 | 66 | 118 | 0.0 | 6.0 | 0.00 | 0.01 | 0.00 | 42 | 1017.1 |
| 20260503222545 | 66 | 186 | 1.0 | 6.0 | 0.00 | 0.01 | 0.00 | 41 | 1017.2 |
| 20260503222049 | 67 | 189 | 1.0 | 3.0 | 0.00 | 0.01 | 0.00 | 39 | 1017.2 |
| 20260503221551 | 68 | 258 | 0.0 | 4.0 | 0.00 | 0.01 | 0.00 | 39 | 1017.4 |
| 20260503221050 | 68 | 267 | 1.0 | 4.0 | 0.00 | 0.01 | 0.00 | 37 | 1017.5 |
| 20260503220554 | 68 | 262 | 1.0 | 5.0 | 0.00 | 0.02 | 0.00 | 37 | 1017.5 |
| 20260503220008 | 69 | 281 | 2.0 | 5.0 | 0.00 | 0.02 | 0.00 | 37 | 1017.5 |
| 20260503215511 | 69 | 292 | 1.0 | 2.0 | 0.00 | 0.02 | 0.00 | 39 | 1017.5 |
| 20260503215016 | 69 | 292 | 0.0 | 6.0 | 0.00 | 0.02 | 0.00 | 37 | 1017.7 |
| 20260503214530 | 68 | 292 | 2.0 | 6.0 | 0.00 | 0.02 | 0.00 | 36 | 1017.7 |
| 20260503214032 | 68 | 255 | 1.0 | 4.0 | 0.00 | 0.02 | 0.00 | 39 | 1017.8 |
| 20260503213532 | 68 | 311 | 2.0 | 4.0 | 0.00 | 0.02 | 0.00 | 39 | 1017.8 |
| 20260503213128 | 68 | 304 | 0.0 | 4.0 | 0.00 | 0.02 | 0.00 | 39 | 1017.9 |
| 20260503212558 | 68 | 296 | 1.0 | 4.0 | 0.00 | 0.02 | 0.00 | 38 | 1018.1 |
| 20260503212102 | 68 | 291 | 1.0 | 4.0 | 0.00 | 0.02 | 0.00 | 39 | 1018.1 |
| 20260503211600 | 68 | 290 | 2.0 | 8.0 | 0.00 | 0.02 | 0.00 | 38 | 1018.2 |
| 20260503211106 | 68 | 219 | 1.0 | 8.0 | 0.00 | 0.02 | 0.00 | 38 | 1018.3 |
| 20260503210608 | 69 | 341 | 2.0 | 4.0 | 0.00 | 0.02 | 0.00 | 39 | 1018.5 |
| 20260503210111 | 69 | 261 | 1.0 | 4.0 | 0.00 | 0.02 | 0.00 | 38 | 1018.6 |
| 20260503205538 | 68 | 283 | 1.0 | 3.0 | 0.00 | 0.02 | 0.00 | 38 | 1018.6 |
| 20260503205040 | 68 | 10 | 0.0 | 3.0 | 0.00 | 0.02 | 0.00 | 41 | 1018.8 |
| 20260503204540 | 67 | 313 | 2.0 | 4.0 | 0.00 | 0.02 | 0.00 | 38 | 1018.8 |
| 20260503204043 | 68 | 254 | 1.0 | 6.0 | 0.00 | 0.02 | 0.00 | 40 | 1018.8 |
| 20260503203545 | 68 | 182 | 2.0 | 6.0 | 0.00 | 0.02 | 0.00 | 39 | 1018.9 |
| 20260503203015 | 68 | 262 | 1.0 | 5.0 | 0.00 | 0.02 | 0.00 | 40 | 1019.1 |
| 20260503202508 | 67 | 333 | 0.0 | 3.0 | 0.00 | 0.02 | 0.00 | 39 | 1019.1 |
| 20260503202004 | 68 | 324 | 1.0 | 5.0 | 0.00 | 0.02 | 0.00 | 37 | 1019.2 |
| 20260503201604 | 68 | 325 | 0.0 | 5.0 | 0.00 | 0.02 | 0.00 | 42 | 1019.3 |
| 20260503201103 | 67 | 342 | 0.0 | 7.0 | 0.00 | 0.02 | 0.00 | 39 | 1019.4 |
| 20260503200604 | 67 | 342 | 3.0 | 7.0 | 0.00 | 0.02 | 0.00 | 36 | 1019.5 |
| 20260503200109 | 67 | 298 | 1.0 | 4.0 | 0.00 | 0.02 | 0.00 | 39 | 1019.6 |
| 20260503195543 | 67 | 266 | 1.0 | 4.0 | 0.00 | 0.02 | 0.00 | 38 | 1019.7 |
| 20260503195045 | 67 | 243 | 1.0 | 5.0 | 0.00 | 0.02 | 0.00 | 41 | 1019.8 |
| 20260503194549 | 67 | 176 | 2.0 | 6.0 | 0.00 | 0.02 | 0.00 | 38 | 1020.1 |
| 20260503194054 | 67 | 270 | 2.0 | 6.0 | 0.00 | 0.02 | 0.00 | 38 | 1020.2 |
| 20260503193554 | 67 | 316 | 1.0 | 5.0 | 0.00 | 0.02 | 0.00 | 40 | 1020.2 |
| 20260503193011 | 67 | 226 | 1.0 | 7.0 | 0.00 | 0.02 | 0.00 | 38 | 1020.4 |
| 20260503192505 | 66 | 296 | 2.0 | 7.0 | 0.00 | 0.02 | 0.00 | 38 | 1020.4 |
| 20260503192008 | 66 | 288 | 1.0 | 3.0 | 0.00 | 0.02 | 0.00 | 39 | 1020.4 |
| 20260503191510 | 65 | 169 | 1.0 | 5.0 | 0.00 | 0.02 | 0.00 | 42 | 1020.4 |
| 20260503191022 | 66 | 170 | 1.0 | 5.0 | 0.00 | 0.02 | 0.00 | 40 | 1020.4 |
| 20260503190518 | 66 | 169 | 1.0 | 6.0 | 0.00 | 0.02 | 0.00 | 40 | 1020.6 |
| 20260503190117 | 66 | 291 | 2.0 | 6.0 | 0.00 | 0.02 | 0.00 | 39 | 1020.6 |
| 20260503185548 | 66 | 252 | 2.0 | 4.0 | 0.00 | 0.02 | 0.00 | 40 | 1020.6 |
| 20260503185045 | 66 | 279 | 1.0 | 4.0 | 0.00 | 0.02 | 0.00 | 41 | 1020.6 |
| 20260503184547 | 65 | 313 | 1.0 | 6.0 | 0.00 | 0.02 | 0.00 | 42 | 1020.7 |
| 20260503184050 | 64 | 249 | 1.0 | 6.0 | 0.00 | 0.02 | 0.00 | 41 | 1020.7 |
| 20260503183554 | 65 | 174 | 1.0 | 4.0 | 0.00 | 0.02 | 0.00 | 46 | 1020.8 |
| 20260503183103 | 64 | 290 | 2.0 | 6.0 | 0.00 | 0.02 | 0.00 | 45 | 1020.8 |
| 20260503182532 | 64 | 230 | 3.0 | 6.0 | 0.00 | 0.02 | 0.00 | 38 | 1020.9 |
| 20260503182031 | 64 | 208 | 1.0 | 3.0 | 0.00 | 0.02 | 0.00 | 45 | 1021.0 |
| 20260503181513 | 63 | 109 | 0.0 | 4.0 | 0.00 | 0.02 | 0.00 | 43 | 1021.0 |
| 20260503181029 | 63 | 140 | 1.0 | 4.0 | 0.00 | 0.02 | 0.00 | 44 | 1020.9 |
| 20260503180530 | 63 | 134 | 2.0 | 6.0 | 0.00 | 0.02 | 0.00 | 42 | 1021.1 |
| 20260503180129 | 63 | 110 | 2.0 | 6.0 | 0.00 | 0.02 | 0.00 | 40 | 1021.1 |
| 20260503175605 | 63 | 246 | 2.0 | 3.0 | 0.00 | 0.02 | 0.00 | 41 | 1021.3 |
| 20260503175003 | 63 | 248 | 1.0 | 6.0 | 0.00 | 0.02 | 0.00 | 41 | 1021.3 |
| 20260503174507 | 63 | 320 | 2.0 | 6.0 | 0.00 | 0.02 | 0.00 | 45 | 1021.4 |
| 20260503174025 | 63 | 273 | 1.0 | 4.0 | 0.00 | 0.02 | 0.00 | 42 | 1021.4 |
| 20260503173518 | 63 | 355 | 1.0 | 2.0 | 0.00 | 0.02 | 0.00 | 43 | 1021.5 |
| 20260503173123 | 62 | 355 | 0.0 | 3.0 | 0.00 | 0.02 | 0.00 | 44 | 1021.5 |
| 20260503172558 | 61 | 355 | 2.0 | 3.0 | 0.00 | 0.02 | 0.00 | 43 | 1021.5 |
| 20260503172053 | 61 | 336 | 1.0 | 3.0 | 0.00 | 0.02 | 0.00 | 43 | 1021.6 |
| 20260503171604 | 61 | 301 | 1.0 | 3.0 | 0.00 | 0.02 | 0.00 | 45 | 1021.7 |
| 20260503171053 | 61 | 144 | 1.0 | 8.0 | 0.00 | 0.02 | 0.00 | 45 | 1021.8 |
| 20260503170553 | 61 | 323 | 1.0 | 8.0 | 0.00 | 0.02 | 0.00 | 47 | 1021.9 |
| 20260503150557 | 55 | 181 | 0.0 | 4.0 | 0.00 | 0.02 | 0.00 | 65 | 1022.9 |
| 20260503140121 | 46 | 184 | 0.0 | 2.0 | 0.00 | 0.02 | 0.00 | 95 | 1022.8 |
| 20260503131020 | 41 | 294 | 0.0 | 1.0 | 0.00 | 0.02 | 0.00 | 96 | 1022.7 |
| 20260503130521 | 41 | 294 | 0.0 | 0.0 | 0.00 | 0.02 | 0.00 | 96 | 1022.7 |
| 20260503130113 | 40 | 294 | 0.0 | 0.0 | 0.00 | 0.02 | 0.00 | 96 | 1022.9 |
| 20260503120122 | 36 | 355 | 0.0 | 1.0 | 0.00 | 0.02 | 0.00 | 94 | 1022.4 |
| 20260503110552 | 36 | 355 | 0.0 | 1.0 | 0.00 | 0.02 | 0.00 | 94 | 1021.6 |
| 20260503100130 | 37 | 355 | 0.0 | 1.0 | 0.00 | 0.02 | 0.00 | 94 | 1021.2 |